.
WxDataArchive / Data Records for 2012-11-24
2012-11-23 November 2012 2012-11-25

Data Records for Saturday, 24 November 2012

Time	Temp	Chill	HIndex	Humid	Dewpt	 Wind 	HiWind	WindDir	Rain 	Barom 
-----	----	-----	------	-----	-----	------	------	-------	-----	----- 
00:00	29.5	29.5	29.5	65	19.2	2	5	248	0.00	30.128 
00:05	29.4	29.4	29.4	65	19.1	2	5	248	0.00	30.128 
00:10	29.4	29.4	29.4	65	19.1	2	6	248	0.00	30.128 
00:15	29.4	29.4	29.4	65	19.1	2	5	248	0.00	30.129 
00:20	29.4	29.4	29.4	65	19.1	2	4	248	0.00	30.129 
00:25	29.4	29.4	29.4	65	19.1	2	5	248	0.00	30.129 
00:30	29.3	29.3	29.3	65	19.0	2	11	248	0.00	30.132 
00:35	29.3	29.3	29.3	65	19.0	2	7	248	0.00	30.132 
00:40	29.3	29.3	29.3	66	19.4	2	5	248	0.00	30.132 
00:45	29.3	29.3	29.3	65	19.0	2	6	270	0.00	30.130 
00:50	29.3	29.3	29.3	65	19.0	2	5	248	0.00	30.130 
00:55	29.3	29.3	29.3	65	19.0	3	5	248	0.00	30.130 
01:00	29.1	29.1	29.1	65	18.8	3	7	248	0.00	30.130 
01:05	29.1	29.1	29.1	65	18.8	2	6	248	0.00	30.130 
01:10	29.3	29.3	29.3	66	19.4	2	6	248	0.00	30.130 
01:15	29.3	29.3	29.3	66	19.4	3	10	248	0.00	30.132 
01:20	29.3	29.3	29.3	66	19.4	2	6	248	0.00	30.132 
01:25	29.3	29.3	29.3	66	19.4	2	6	248	0.00	30.132 
01:30	29.3	29.3	29.3	67	19.7	1	4	248	0.00	30.131 
01:35	29.3	29.3	29.3	67	19.7	2	6	248	0.00	30.131 
01:40	29.4	29.4	29.4	67	19.8	1	4	248	0.00	30.131 
01:45	29.4	29.4	29.4	67	19.8	2	7	248	0.00	30.125 
01:50	29.4	29.4	29.4	67	19.8	2	5	248	0.00	30.125 
01:55	29.4	29.4	29.4	68	20.2	2	6	248	0.00	30.125 
02:00	29.4	29.4	29.4	68	20.2	1	5	248	0.00	30.125 
02:05	29.4	29.4	29.4	68	20.2	2	5	248	0.00	30.125 
02:10	29.4	29.4	29.4	68	20.2	1	3	248	0.00	30.125 
02:15	29.5	29.5	29.5	68	20.3	2	5	248	0.00	30.126 
02:20	29.5	29.5	29.5	68	20.3	2	5	248	0.00	30.126 
02:25	29.5	29.5	29.5	68	20.3	1	4	248	0.00	30.126 
02:30	29.5	29.5	29.5	68	20.3	2	7	248	0.00	30.130 
02:35	29.5	29.5	29.5	68	20.3	1	4	248	0.00	30.130 
02:40	29.5	29.5	29.5	69	20.6	1	2	248	0.00	30.130 
02:45	29.5	29.5	29.5	69	20.6	1	4	248	0.00	30.135 
02:50	29.5	29.5	29.5	69	20.6	1	3	248	0.00	30.135 
02:55	29.5	29.5	29.5	69	20.6	1	3	248	0.00	30.135 
03:00	29.5	29.5	29.5	69	20.6	1	4	248	0.00	30.139 
03:05	29.5	29.5	29.5	69	20.6	2	4	248	0.00	30.139 
03:10	29.5	29.5	29.5	69	20.6	1	4	248	0.00	30.139 
03:15	29.5	29.5	29.5	69	20.6	2	4	248	0.00	30.141 
03:20	29.5	29.5	29.5	69	20.6	1	3	248	0.00	30.141 
03:25	29.4	29.4	29.4	69	20.5	1	5	248	0.00	30.141 
03:30	29.4	29.4	29.4	69	20.5	1	4	248	0.00	30.139 
03:35	29.4	29.4	29.4	69	20.5	1	5	248	0.00	30.139 
03:40	29.3	29.3	29.3	69	20.4	2	3	248	0.00	30.139 
03:45	29.3	29.3	29.3	69	20.4	1	3	248	0.00	30.143 
03:50	29.3	29.3	29.3	70	20.8	1	4	248	0.00	30.143 
03:55	29.1	29.1	29.1	69	20.2	2	5	248	0.00	30.143 
04:00	29.1	29.1	29.1	69	20.2	1	3	248	0.00	30.140 
04:05	29.1	29.1	29.1	70	20.6	1	3	248	0.00	30.140 
04:10	29.1	29.1	29.1	70	20.6	1	4	248	0.00	30.140 
04:15	29.1	29.1	29.1	70	20.6	2	6	248	0.00	30.139 
04:20	29.1	29.1	29.1	70	20.6	2	4	248	0.00	30.139 
04:25	29.1	29.1	29.1	71	20.9	2	6	248	0.00	30.139 
04:30	29.1	29.1	29.1	71	20.9	1	3	248	0.00	30.138 
04:35	29.1	29.1	29.1	71	20.9	1	2	248	0.00	30.138 
04:40	29.1	29.1	29.1	71	20.9	1	3	248	0.00	30.138 
04:45	29.1	29.1	29.1	71	20.9	1	4	248	0.00	30.139 
04:50	29.1	29.1	29.1	71	20.9	2	6	248	0.00	30.139 
04:55	29.1	29.1	29.1	71	20.9	2	5	248	0.00	30.139 
05:00	29.1	29.1	29.1	71	20.9	1	4	248	0.00	30.140 
05:05	29.1	29.1	29.1	71	20.9	1	4	248	0.00	30.140 
05:10	29.1	29.1	29.1	71	20.9	1	3	248	0.00	30.140 
05:15	29.0	29.0	29.0	71	20.8	1	4	248	0.00	30.149 
05:20	29.0	29.0	29.0	71	20.8	2	4	248	0.00	30.149 
05:25	29.0	29.0	29.0	71	20.8	1	6	248	0.00	30.149 
05:30	29.0	29.0	29.0	71	20.8	2	4	248	0.00	30.152 
05:35	29.0	29.0	29.0	72	21.1	1	3	248	0.00	30.152 
05:40	29.0	29.0	29.0	72	21.1	1	3	248	0.00	30.152 
05:45	29.0	29.0	29.0	72	21.1	1	5	248	0.00	30.153 
05:50	29.0	29.0	29.0	72	21.1	1	4	248	0.00	30.153 
05:55	29.0	29.0	29.0	72	21.1	2	5	248	0.00	30.153 
06:00	29.0	29.0	29.0	73	21.4	1	3	248	0.00	30.155 
06:05	29.0	29.0	29.0	73	21.4	1	3	248	0.00	30.155 
06:10	29.0	29.0	29.0	73	21.4	1	4	248	0.00	30.155 
06:15	29.0	29.0	29.0	73	21.4	1	4	248	0.00	30.154 
06:20	29.0	29.0	29.0	73	21.4	1	4	270	0.00	30.154 
06:25	29.0	29.0	29.0	73	21.4	1	3	270	0.00	30.154 
06:30	29.0	29.0	29.0	74	21.8	1	2	270	0.00	30.158 
06:35	29.0	29.0	29.0	74	21.8	1	3	248	0.00	30.158 
06:40	29.0	29.0	29.0	74	21.8	1	4	248	0.00	30.158 
06:45	29.0	29.0	29.0	74	21.8	1	3	248	0.00	30.165 
06:50	29.0	29.0	29.0	74	21.8	0	2	248	0.00	30.165 
06:55	29.0	29.0	29.0	75	22.1	1	3	248	0.00	30.165 
07:00	29.0	29.0	29.0	75	22.1	1	3	248	0.00	30.167 
07:05	29.0	29.0	29.0	76	22.4	1	3	248	0.00	30.167 
07:10	28.8	28.8	28.8	76	22.2	0	2	248	0.00	30.167 
07:15	28.8	28.8	28.8	76	22.2	1	2	248	0.00	30.166 
07:20	28.8	28.8	28.8	76	22.2	0	2	248	0.00	30.166 
07:25	28.8	28.8	28.8	77	22.5	0	1	248	0.00	30.166 
07:30	28.8	28.8	28.8	77	22.5	0	2	248	0.00	30.167 
07:35	28.8	28.8	28.8	77	22.5	0	2	248	0.00	30.167 
07:40	29.0	29.0	29.0	77	22.7	1	3	248	0.00	30.167 
07:45	29.0	29.0	29.0	76	22.4	0	2	248	0.00	30.171 
07:50	29.0	29.0	29.0	76	22.4	0	2	248	0.00	30.171 
07:55	29.1	29.1	29.1	76	22.5	1	4	248	0.00	30.171 
08:00	29.4	29.4	29.4	74	22.2	2	5	315	0.00	30.171 
08:05	29.8	29.8	29.8	71	21.6	1	5	292	0.00	30.171 
08:10	30.1	30.1	30.1	70	21.5	1	4	338	0.00	30.171 
08:15	30.1	30.1	30.1	70	21.5	1	3	338	0.00	30.177 
08:20	30.3	30.3	30.3	70	21.7	0	3	270	0.00	30.177 
08:25	30.3	30.3	30.3	70	21.7	0	2	292	0.00	30.177 
08:30	30.3	30.3	30.3	70	21.7	0	3	292	0.00	30.180 
08:35	30.3	30.3	30.3	70	21.7	0	2	315	0.00	30.180 
08:40	30.3	30.3	30.3	70	21.7	1	4	315	0.00	30.180 
08:45	30.4	30.4	30.4	70	21.8	1	6	292	0.00	30.179 
08:50	30.4	30.4	30.4	70	21.8	1	3	292	0.00	30.179 
08:55	30.4	30.4	30.4	69	21.5	2	5	270	0.00	30.179 
09:00	30.4	30.4	30.4	69	21.5	2	6	270	0.00	30.185 
09:05	30.4	30.4	30.4	68	21.1	1	5	315	0.00	30.185 
09:10	30.6	30.6	30.6	68	21.3	1	4	270	0.00	30.185 
09:15	30.6	30.6	30.6	69	21.7	1	3	270	0.00	30.186 
09:20	30.4	30.4	30.4	71	22.1	1	4	248	0.00	30.186 
09:25	30.1	30.1	30.1	73	22.5	1	3	248	0.00	30.186 
09:30	29.8	29.8	29.8	73	22.2	1	3	248	0.00	30.191 
09:35	29.7	29.7	29.7	74	22.4	1	3	248	0.00	30.191 
09:40	29.7	29.7	29.7	74	22.4	1	4	248	0.00	30.191 
09:45	29.5	29.5	29.5	74	22.3	1	3	248	0.00	30.199 
09:50	29.5	29.5	29.5	74	22.3	1	3	248	0.00	30.199 
09:55	29.5	29.5	29.5	74	22.3	1	5	248	0.00	30.199 
10:00	29.5	29.5	29.5	74	22.3	1	3	248	0.00	30.199 
10:05	29.5	29.5	29.5	74	22.3	1	4	248	0.00	30.199 
10:10	29.7	29.7	29.7	73	22.1	1	3	248	0.00	30.199 
10:15	29.8	29.8	29.8	73	22.2	1	2	248	0.00	30.200 
10:20	30.0	30.0	30.0	73	22.4	0	2	248	0.00	30.200 
10:25	30.1	30.1	30.1	73	22.5	0	2	248	0.00	30.200 
10:30	30.1	30.1	30.1	73	22.5	0	2	248	0.00	30.201 
10:35	30.4	30.4	30.4	73	22.8	0	2	248	0.00	30.201 
10:40	30.6	30.6	30.6	73	23.0	0	1	248	0.00	30.201 
10:45	30.7	30.7	30.7	73	23.1	0	1	248	0.00	30.201 
10:50	30.7	30.7	30.7	72	22.8	0	2	248	0.00	30.201 
10:55	30.9	30.9	30.9	70	22.3	1	4	248	0.00	30.201 
11:00	31.2	31.2	31.2	69	22.2	1	2	248	0.00	30.201 
11:05	31.3	31.3	31.3	66	21.3	1	4	315	0.00	30.201 
11:10	31.5	31.5	31.5	66	21.5	1	4	315	0.00	30.201 
11:15	31.6	31.6	31.6	66	21.6	0	2	338	0.00	30.198 
11:20	31.6	31.6	31.6	68	22.3	1	4	248	0.00	30.198 
11:25	31.3	31.3	31.3	69	22.3	1	2	248	0.00	30.198 
11:30	31.2	31.2	31.2	69	22.2	1	3	248	0.00	30.198 
11:35	31.0	31.0	31.0	69	22.0	1	4	248	0.00	30.198 
11:40	30.9	30.9	30.9	70	22.3	1	3	248	0.00	30.198 
11:45	30.7	30.7	30.7	70	22.1	2	6	248	0.00	30.197 
11:50	30.7	30.7	30.7	70	22.1	2	4	248	0.00	30.197 
11:55	30.6	30.6	30.6	70	22.0	2	5	248	0.00	30.197 
12:00	30.4	30.4	30.4	70	21.8	2	6	248	0.00	30.194 
12:05	30.4	30.4	30.4	71	22.1	1	4	225	0.00	30.194 
12:10	30.6	30.6	30.6	70	22.0	2	4	248	0.00	30.194 
12:15	30.4	30.4	30.4	69	21.5	2	4	248	0.00	30.193 
12:20	30.4	30.4	30.4	70	21.8	1	3	248	0.00	30.193 
12:25	30.3	30.3	30.3	69	21.4	1	4	248	0.00	30.193 
12:30	30.3	30.3	30.3	69	21.4	2	4	248	0.00	30.187 
12:35	30.1	30.1	30.1	69	21.2	2	6	248	0.00	30.187 
12:40	30.3	30.3	30.3	69	21.4	1	3	270	0.00	30.187 
12:45	30.3	30.3	30.3	70	21.7	1	3	270	0.00	30.185 
12:50	30.6	30.6	30.6	69	21.7	1	6	248	0.00	30.185 
12:55	30.6	30.6	30.6	69	21.7	1	3	248	0.00	30.185 
13:00	30.6	30.6	30.6	69	21.7	2	5	248	0.00	30.180 
13:05	30.4	30.4	30.4	69	21.5	1	4	248	0.00	30.180 
13:10	30.6	30.6	30.6	69	21.7	1	4	248	0.00	30.180 
13:15	30.6	30.6	30.6	69	21.7	2	6	225	0.00	30.179 
13:20	30.4	30.4	30.4	69	21.5	2	4	248	0.00	30.179 
13:25	30.4	30.4	30.4	69	21.5	2	9	248	0.00	30.179 
13:30	30.4	30.4	30.4	69	21.5	2	5	270	0.00	30.183 
13:35	30.4	30.4	30.4	69	21.5	1	4	248	0.00	30.183 
13:40	30.4	30.4	30.4	69	21.5	2	4	248	0.00	30.183 
13:45	30.4	30.4	30.4	68	21.1	2	5	248	0.00	30.176 
13:50	30.4	30.4	30.4	68	21.1	2	7	248	0.00	30.176 
13:55	30.4	30.4	30.4	69	21.5	2	8	248	0.00	30.176 
14:00	30.4	30.4	30.4	68	21.1	2	6	248	0.00	30.176 
14:05	30.4	30.4	30.4	68	21.1	2	6	248	0.00	30.176 
14:10	30.4	30.4	30.4	69	21.5	2	4	248	0.00	30.176 
14:15	30.3	30.3	30.3	68	21.0	2	6	248	0.00	30.173 
14:20	30.3	30.3	30.3	68	21.0	2	5	248	0.00	30.173 
14:25	30.1	30.1	30.1	68	20.8	2	5	248	0.00	30.173 
14:30	30.3	30.3	30.3	69	21.4	2	5	248	0.00	30.173 
14:35	30.3	30.3	30.3	69	21.4	2	5	248	0.00	30.173 
14:40	30.1	30.1	30.1	68	20.8	2	5	248	0.00	30.173 
14:45	30.1	30.1	30.1	69	21.2	1	3	270	0.00	30.172 
14:50	30.3	30.3	30.3	69	21.4	1	3	270	0.00	30.172 
14:55	30.3	30.3	30.3	68	21.0	2	6	248	0.00	30.172 
15:00	30.1	30.1	30.1	68	20.8	3	7	248	0.00	30.169 
15:05	30.1	30.1	30.1	68	20.8	3	7	248	0.00	30.169 
15:10	30.0	30.0	30.0	69	21.1	2	6	248	0.00	30.169 
15:15	30.0	30.0	30.0	69	21.1	2	6	248	0.00	30.171 
15:20	29.8	29.8	29.8	68	20.5	2	4	248	0.00	30.171 
15:25	29.7	29.7	29.7	69	20.8	2	5	248	0.00	30.171 
15:30	29.7	29.7	29.7	69	20.8	3	5	248	0.00	30.169 
15:35	29.7	29.7	29.7	69	20.8	2	5	270	0.00	30.169 
15:40	29.7	29.7	29.7	69	20.8	1	4	248	0.00	30.169 
15:45	29.7	29.7	29.7	69	20.8	2	4	248	0.00	30.170 
15:50	29.7	29.7	29.7	69	20.8	2	6	248	0.00	30.170 
15:55	29.5	29.5	29.5	69	20.6	1	4	248	0.00	30.170 
16:00	29.5	29.5	29.5	69	20.6	2	5	248	0.00	30.171 
16:05	29.5	29.5	29.5	69	20.6	2	4	248	0.00	30.171 
16:10	29.5	29.5	29.5	69	20.6	2	5	248	0.00	30.171 
16:15	29.4	29.4	29.4	69	20.5	2	6	248	0.00	30.171 
16:20	29.5	29.5	29.5	70	20.9	1	4	248	0.00	30.171 
16:25	29.5	29.5	29.5	70	20.9	1	3	248	0.00	30.171 
16:30	29.4	29.4	29.4	70	20.8	1	5	248	0.00	30.171 
16:35	29.4	29.4	29.4	70	20.8	1	5	248	0.00	30.171 
16:40	29.4	29.4	29.4	70	20.8	1	3	248	0.00	30.171 
16:45	29.4	29.4	29.4	70	20.8	1	3	248	0.00	30.172 
16:50	29.4	29.4	29.4	70	20.8	1	3	248	0.00	30.172 
16:55	29.4	29.4	29.4	70	20.8	1	9	248	0.00	30.172 
17:00	29.4	29.4	29.4	70	20.8	2	5	248	0.00	30.173 
17:05	29.4	29.4	29.4	70	20.8	0	3	248	0.00	30.173 
17:10	29.4	29.4	29.4	71	21.2	1	3	248	0.00	30.173 
17:15	29.3	29.3	29.3	70	20.8	1	3	248	0.00	30.172 
17:20	29.3	29.3	29.3	70	20.8	1	4	248	0.00	30.172 
17:25	29.3	29.3	29.3	70	20.8	0	3	248	0.00	30.172 
17:30	29.3	29.3	29.3	71	21.1	1	2	248	0.00	30.171 
17:35	29.3	29.3	29.3	71	21.1	1	3	248	0.00	30.171 
17:40	29.3	29.3	29.3	71	21.1	0	2	248	0.00	30.171 
17:45	29.3	29.3	29.3	71	21.1	0	2	248	0.00	30.169 
17:50	29.1	29.1	29.1	71	20.9	1	3	248	0.00	30.169 
17:55	29.1	29.1	29.1	71	20.9	1	5	248	0.00	30.169 
18:00	29.1	29.1	29.1	71	20.9	0	1	248	0.00	30.162 
18:05	29.1	29.1	29.1	71	20.9	0	3	248	0.00	30.162 
18:10	29.1	29.1	29.1	71	20.9	1	3	248	0.00	30.162 
18:15	29.1	29.1	29.1	71	20.9	0	2	248	0.00	30.163 
18:20	29.1	29.1	29.1	71	20.9	1	4	248	0.00	30.163 
18:25	29.0	29.0	29.0	71	20.8	1	3	248	0.00	30.163 
18:30	29.0	29.0	29.0	71	20.8	1	3	248	0.00	30.168 
18:35	29.0	29.0	29.0	71	20.8	1	2	248	0.00	30.168 
18:40	29.0	29.0	29.0	71	20.8	1	3	248	0.00	30.168 
18:45	29.0	29.0	29.0	72	21.1	1	4	248	0.00	30.160 
18:50	29.0	29.0	29.0	71	20.8	0	2	248	0.00	30.160 
18:55	29.0	29.0	29.0	71	20.8	0	2	248	0.00	30.160 
19:00	29.0	29.0	29.0	72	21.1	0	2	248	0.00	30.160 
19:05	29.0	29.0	29.0	71	20.8	0	1	248	0.00	30.160 
19:10	29.0	29.0	29.0	71	20.8	0	3	248	0.00	30.160 
19:15	29.0	29.0	29.0	71	20.8	0	1	248	0.00	30.168 
19:20	29.0	29.0	29.0	72	21.1	0	3	248	0.00	30.168 
19:25	29.0	29.0	29.0	72	21.1	0	3	248	0.00	30.168 
19:30	29.0	29.0	29.0	71	20.8	0	1	248	0.00	30.163 
19:35	29.1	29.1	29.1	71	20.9	0	1	248	0.00	30.163 
19:40	29.1	29.1	29.1	71	20.9	0	3	248	0.00	30.163 
19:45	29.1	29.1	29.1	71	20.9	0	1	248	0.00	30.157 
19:50	29.1	29.1	29.1	71	20.9	0	2	248	0.00	30.157 
19:55	29.1	29.1	29.1	71	20.9	1	3	248	0.00	30.157 
20:00	29.1	29.1	29.1	71	20.9	0	3	248	0.00	30.161 
20:05	29.1	29.1	29.1	71	20.9	0	3	248	0.00	30.161 
20:10	29.1	29.1	29.1	70	20.6	1	3	248	0.00	30.161 
20:15	29.1	29.1	29.1	70	20.6	0	2	248	0.00	30.156 
20:20	29.1	29.1	29.1	69	20.2	1	3	248	0.00	30.156 
20:25	29.1	29.1	29.1	69	20.2	0	3	248	0.00	30.156 
20:30	29.1	29.1	29.1	69	20.2	0	2	248	0.00	30.151 
20:35	29.1	29.1	29.1	69	20.2	1	3	248	0.00	30.151 
20:40	29.1	29.1	29.1	67	19.5	1	4	248	0.00	30.151 
20:45	29.1	29.1	29.1	66	19.2	1	4	248	0.00	30.138 
20:50	29.1	29.1	29.1	66	19.2	0	4	248	0.00	30.138 
20:55	29.0	29.0	29.0	66	19.1	0	3	248	0.00	30.138 
21:00	29.0	29.0	29.0	66	19.1	0	3	248	0.00	30.134 
21:05	29.0	29.0	29.0	66	19.1	1	3	292	0.00	30.134 
21:10	29.0	29.0	29.0	66	19.1	0	2	292	0.00	30.134 
21:15	29.0	29.0	29.0	65	18.7	0	2	292	0.00	30.125 
21:20	28.8	28.8	28.8	65	18.5	0	3	292	0.00	30.125 
21:25	28.8	28.8	28.8	65	18.5	0	3	292	0.00	30.125 
21:30	28.8	28.8	28.8	66	18.9	0	1	292	0.00	30.123 
21:35	28.8	28.8	28.8	66	18.9	0	1	292	0.00	30.123 
21:40	28.8	28.8	28.8	66	18.9	0	1	292	0.00	30.123 
21:45	28.8	28.8	28.8	65	18.5	0	3	292	0.00	30.115 
21:50	28.8	28.8	28.8	65	18.5	0	2	292	0.00	30.115 
21:55	28.7	28.7	28.7	65	18.4	1	4	248	0.00	30.115 
22:00	28.7	28.7	28.7	65	18.4	0	2	248	0.00	30.119 
22:05	28.7	28.7	28.7	65	18.4	0	2	248	0.00	30.119 
22:10	28.7	28.7	28.7	65	18.4	1	4	248	0.00	30.119 
22:15	28.8	28.8	28.8	66	18.9	0	4	248	0.00	30.112 
22:20	28.8	28.8	28.8	66	18.9	0	3	248	0.00	30.112 
22:25	28.8	28.8	28.8	66	18.9	0	2	248	0.00	30.112 
22:30	28.7	28.7	28.7	65	18.4	1	4	248	0.00	30.107 
22:35	28.7	28.7	28.7	65	18.4	1	5	248	0.00	30.107 
22:40	28.5	28.5	28.5	65	18.3	0	3	248	0.00	30.107 
22:45	28.5	28.5	28.5	65	18.3	0	3	225	0.00	30.106 
22:50	28.5	28.5	28.5	65	18.3	1	4	225	0.00	30.106 
22:55	28.4	28.4	28.4	64	17.8	1	5	248	0.00	30.106 
23:00	28.4	28.4	28.4	65	18.2	0	3	248	0.00	30.101 
23:05	28.4	28.4	28.4	65	18.2	1	3	248	0.00	30.101 
23:10	28.4	28.4	28.4	65	18.2	1	6	248	0.00	30.101 
23:15	28.4	28.4	28.4	65	18.2	1	5	248	0.00	30.095 
23:20	28.4	28.4	28.4	65	18.2	1	5	248	0.00	30.095 
23:25	28.4	28.4	28.4	65	18.2	1	4	225	0.00	30.095 
23:30	28.4	28.4	28.4	66	18.5	1	4	248	0.00	30.095 
23:35	28.4	28.4	28.4	66	18.5	0	4	248	0.00	30.095 
23:40	28.4	28.4	28.4	66	18.5	1	3	248	0.00	30.095 
23:45	28.2	28.2	28.2	66	18.3	1	5	248	0.00	30.096 
23:50	28.2	28.2	28.2	66	18.3	1	5	248	0.00	30.096 
23:55	28.2	28.2	28.2	66	18.3	0	2	248	0.00	30.096 

CoCoRaHS
IN-AL-39
A2 Web Hosting
Creative Commons License
GoDaddy
search engine by freefind advanced

loaded 2018-11-17 12:19:52 • last modified 2010-11-18 10:43:29
Privacy PolicyDisclaimer
• wx.awcolley.com is powered by PmWiki v.2002016 •
• all content (unless otherwise noted) © 2018 A W Colley